sensor_id;sensor_type;location;lat;lon;timestamp;P1;durP1;ratioP1;P2;durP2;ratioP2
5678;SDS011;2862;52.560;13.566;2023-10-19T00:02:39;38.77;;;15.20;;
5678;SDS011;2862;52.560;13.566;2023-10-19T00:12:42;37.57;;;14.50;;
5678;SDS011;2862;52.560;13.566;2023-10-19T00:22:55;36.97;;;13.33;;
5678;SDS011;2862;52.560;13.566;2023-10-19T00:33:00;34.07;;;13.53;;
5678;SDS011;2862;52.560;13.566;2023-10-19T00:43:06;37.17;;;15.17;;
5678;SDS011;2862;52.560;13.566;2023-10-19T00:53:13;39.40;;;15.77;;
5678;SDS011;2862;52.560;13.566;2023-10-19T01:03:18;38.13;;;14.23;;
5678;SDS011;2862;52.560;13.566;2023-10-19T01:13:21;38.77;;;14.80;;
5678;SDS011;2862;52.560;13.566;2023-10-19T01:23:29;36.70;;;15.47;;
5678;SDS011;2862;52.560;13.566;2023-10-19T01:33:33;39.63;;;15.50;;
5678;SDS011;2862;52.560;13.566;2023-10-19T01:43:39;39.87;;;16.23;;
5678;SDS011;2862;52.560;13.566;2023-10-19T01:53:43;43.27;;;15.77;;
5678;SDS011;2862;52.560;13.566;2023-10-19T02:03:48;46.43;;;16.27;;
5678;SDS011;2862;52.560;13.566;2023-10-19T02:13:57;45.53;;;16.00;;
5678;SDS011;2862;52.560;13.566;2023-10-19T02:24:03;44.90;;;16.77;;
5678;SDS011;2862;52.560;13.566;2023-10-19T02:34:09;43.63;;;16.33;;
5678;SDS011;2862;52.560;13.566;2023-10-19T02:44:18;42.27;;;15.27;;
5678;SDS011;2862;52.560;13.566;2023-10-19T02:54:24;37.73;;;15.27;;
5678;SDS011;2862;52.560;13.566;2023-10-19T03:04:28;40.83;;;14.23;;
5678;SDS011;2862;52.560;13.566;2023-10-19T03:14:32;46.90;;;18.30;;
5678;SDS011;2862;52.560;13.566;2023-10-19T03:24:36;41.60;;;17.60;;
5678;SDS011;2862;52.560;13.566;2023-10-19T03:34:43;42.50;;;17.33;;
5678;SDS011;2862;52.560;13.566;2023-10-19T03:44:53;42.90;;;16.30;;
5678;SDS011;2862;52.560;13.566;2023-10-19T03:54:57;48.50;;;16.77;;
5678;SDS011;2862;52.560;13.566;2023-10-19T04:05:01;46.37;;;19.60;;
5678;SDS011;2862;52.560;13.566;2023-10-19T04:15:06;42.07;;;17.80;;
5678;SDS011;2862;52.560;13.566;2023-10-19T04:25:16;42.10;;;18.10;;
5678;SDS011;2862;52.560;13.566;2023-10-19T04:35:20;45.73;;;18.93;;
5678;SDS011;2862;52.560;13.566;2023-10-19T04:45:25;53.10;;;19.90;;
5678;SDS011;2862;52.560;13.566;2023-10-19T04:55:28;50.90;;;20.50;;
5678;SDS011;2862;52.560;13.566;2023-10-19T05:05:33;51.70;;;19.53;;
5678;SDS011;2862;52.560;13.566;2023-10-19T05:15:37;46.67;;;19.40;;
5678;SDS011;2862;52.560;13.566;2023-10-19T05:25:41;50.07;;;20.70;;
5678;SDS011;2862;52.560;13.566;2023-10-19T05:35:44;50.20;;;21.27;;
5678;SDS011;2862;52.560;13.566;2023-10-19T05:45:48;51.63;;;21.40;;
5678;SDS011;2862;52.560;13.566;2023-10-19T05:55:52;55.83;;;21.93;;
5678;SDS011;2862;52.560;13.566;2023-10-19T06:05:57;48.07;;;20.20;;
5678;SDS011;2862;52.560;13.566;2023-10-19T06:15:59;57.93;;;21.57;;
5678;SDS011;2862;52.560;13.566;2023-10-19T06:26:09;51.67;;;22.33;;
5678;SDS011;2862;52.560;13.566;2023-10-19T06:36:14;51.43;;;22.17;;
5678;SDS011;2862;52.560;13.566;2023-10-19T06:46:18;49.00;;;22.97;;
5678;SDS011;2862;52.560;13.566;2023-10-19T06:56:23;55.93;;;22.67;;
5678;SDS011;2862;52.560;13.566;2023-10-19T07:06:27;51.23;;;20.63;;
5678;SDS011;2862;52.560;13.566;2023-10-19T07:16:30;50.03;;;21.03;;
5678;SDS011;2862;52.560;13.566;2023-10-19T07:26:35;47.53;;;21.40;;
5678;SDS011;2862;52.560;13.566;2023-10-19T07:36:45;54.57;;;20.37;;
5678;SDS011;2862;52.560;13.566;2023-10-19T07:46:50;54.67;;;21.20;;
5678;SDS011;2862;52.560;13.566;2023-10-19T07:56:54;46.80;;;20.17;;
5678;SDS011;2862;52.560;13.566;2023-10-19T08:06:58;45.43;;;19.90;;
5678;SDS011;2862;52.560;13.566;2023-10-19T08:17:01;48.37;;;19.57;;
5678;SDS011;2862;52.560;13.566;2023-10-19T08:27:06;54.90;;;20.20;;
5678;SDS011;2862;52.560;13.566;2023-10-19T08:48:06;42.40;;;18.63;;
5678;SDS011;2862;52.560;13.566;2023-10-19T08:58:10;50.03;;;20.20;;
5678;SDS011;2862;52.560;13.566;2023-10-19T09:08:17;48.83;;;21.87;;
5678;SDS011;2862;52.560;13.566;2023-10-19T09:18:24;54.50;;;23.20;;
5678;SDS011;2862;52.560;13.566;2023-10-19T09:28:32;51.67;;;22.30;;
5678;SDS011;2862;52.560;13.566;2023-10-19T09:38:37;49.30;;;20.53;;
5678;SDS011;2862;52.560;13.566;2023-10-19T09:48:41;50.80;;;21.57;;
5678;SDS011;2862;52.560;13.566;2023-10-19T09:58:48;47.00;;;20.10;;
5678;SDS011;2862;52.560;13.566;2023-10-19T10:08:55;50.57;;;21.30;;
5678;SDS011;2862;52.560;13.566;2023-10-19T10:18:59;45.80;;;21.60;;
5678;SDS011;2862;52.560;13.566;2023-10-19T10:29:11;50.47;;;21.53;;
5678;SDS011;2862;52.560;13.566;2023-10-19T10:39:16;58.50;;;24.30;;
5678;SDS011;2862;52.560;13.566;2023-10-19T10:49:27;49.93;;;22.50;;
5678;SDS011;2862;52.560;13.566;2023-10-19T10:59:30;51.63;;;21.47;;
5678;SDS011;2862;52.560;13.566;2023-10-19T11:09:44;57.27;;;22.90;;
5678;SDS011;2862;52.560;13.566;2023-10-19T11:19:47;55.77;;;24.40;;
5678;SDS011;2862;52.560;13.566;2023-10-19T11:30:10;55.40;;;25.27;;
5678;SDS011;2862;52.560;13.566;2023-10-19T11:40:14;65.83;;;25.00;;
5678;SDS011;2862;52.560;13.566;2023-10-19T11:50:18;49.63;;;24.23;;
5678;SDS011;2862;52.560;13.566;2023-10-19T12:00:21;54.57;;;24.40;;
5678;SDS011;2862;52.560;13.566;2023-10-19T12:10:27;48.83;;;21.80;;
5678;SDS011;2862;52.560;13.566;2023-10-19T12:20:34;52.37;;;22.30;;
5678;SDS011;2862;52.560;13.566;2023-10-19T12:30:39;55.90;;;22.83;;
5678;SDS011;2862;52.560;13.566;2023-10-19T12:40:43;52.23;;;21.53;;
5678;SDS011;2862;52.560;13.566;2023-10-19T12:50:49;58.53;;;24.23;;
5678;SDS011;2862;52.560;13.566;2023-10-19T13:00:52;62.53;;;24.37;;
5678;SDS011;2862;52.560;13.566;2023-10-19T13:10:57;62.80;;;27.30;;
5678;SDS011;2862;52.560;13.566;2023-10-19T13:21:05;61.20;;;25.03;;
5678;SDS011;2862;52.560;13.566;2023-10-19T13:31:12;59.90;;;28.90;;
5678;SDS011;2862;52.560;13.566;2023-10-19T13:41:16;58.57;;;28.20;;
5678;SDS011;2862;52.560;13.566;2023-10-19T13:51:21;62.87;;;28.77;;
5678;SDS011;2862;52.560;13.566;2023-10-19T14:01:24;69.83;;;30.07;;
5678;SDS011;2862;52.560;13.566;2023-10-19T14:11:29;61.50;;;28.00;;
5678;SDS011;2862;52.560;13.566;2023-10-19T14:21:32;66.20;;;29.67;;
5678;SDS011;2862;52.560;13.566;2023-10-19T14:31:40;66.97;;;28.43;;
5678;SDS011;2862;52.560;13.566;2023-10-19T14:41:43;61.33;;;28.37;;
5678;SDS011;2862;52.560;13.566;2023-10-19T14:51:47;69.63;;;32.10;;
5678;SDS011;2862;52.560;13.566;2023-10-19T15:01:51;72.10;;;31.77;;
5678;SDS011;2862;52.560;13.566;2023-10-19T15:11:56;67.07;;;30.37;;
5678;SDS011;2862;52.560;13.566;2023-10-19T15:21:59;82.67;;;34.80;;
5678;SDS011;2862;52.560;13.566;2023-10-19T15:32:03;65.87;;;31.73;;
5678;SDS011;2862;52.560;13.566;2023-10-19T15:42:07;73.57;;;34.90;;
5678;SDS011;2862;52.560;13.566;2023-10-19T15:52:11;79.33;;;34.77;;
5678;SDS011;2862;52.560;13.566;2023-10-19T16:02:14;80.47;;;33.67;;
5678;SDS011;2862;52.560;13.566;2023-10-19T16:12:19;80.60;;;35.57;;
5678;SDS011;2862;52.560;13.566;2023-10-19T16:22:22;81.33;;;37.23;;
5678;SDS011;2862;52.560;13.566;2023-10-19T16:32:26;80.57;;;33.60;;
5678;SDS011;2862;52.560;13.566;2023-10-19T16:42:32;70.37;;;34.33;;
5678;SDS011;2862;52.560;13.566;2023-10-19T16:52:39;81.30;;;35.83;;
5678;SDS011;2862;52.560;13.566;2023-10-19T17:02:43;77.20;;;32.60;;
5678;SDS011;2862;52.560;13.566;2023-10-19T17:12:47;78.53;;;35.50;;
5678;SDS011;2862;52.560;13.566;2023-10-19T17:22:50;76.17;;;33.30;;
5678;SDS011;2862;52.560;13.566;2023-10-19T17:32:56;63.90;;;28.50;;
5678;SDS011;2862;52.560;13.566;2023-10-19T17:43:03;74.73;;;30.97;;
5678;SDS011;2862;52.560;13.566;2023-10-19T17:53:09;68.60;;;28.97;;
5678;SDS011;2862;52.560;13.566;2023-10-19T18:03:13;66.47;;;27.87;;
5678;SDS011;2862;52.560;13.566;2023-10-19T18:13:17;65.00;;;28.57;;
5678;SDS011;2862;52.560;13.566;2023-10-19T18:23:20;60.60;;;26.73;;
5678;SDS011;2862;52.560;13.566;2023-10-19T18:33:25;60.33;;;27.40;;
5678;SDS011;2862;52.560;13.566;2023-10-19T18:43:30;49.40;;;22.10;;
5678;SDS011;2862;52.560;13.566;2023-10-19T18:53:34;50.90;;;23.20;;
5678;SDS011;2862;52.560;13.566;2023-10-19T19:03:37;52.80;;;22.03;;
5678;SDS011;2862;52.560;13.566;2023-10-19T19:13:41;54.27;;;23.60;;
5678;SDS011;2862;52.560;13.566;2023-10-19T19:23:44;64.63;;;26.10;;
5678;SDS011;2862;52.560;13.566;2023-10-19T19:33:49;56.30;;;25.57;;
5678;SDS011;2862;52.560;13.566;2023-10-19T19:43:52;61.97;;;24.77;;
5678;SDS011;2862;52.560;13.566;2023-10-19T19:53:56;58.00;;;24.80;;
5678;SDS011;2862;52.560;13.566;2023-10-19T20:03:59;61.27;;;24.80;;
5678;SDS011;2862;52.560;13.566;2023-10-19T20:14:05;55.20;;;25.50;;
5678;SDS011;2862;52.560;13.566;2023-10-19T20:24:08;61.67;;;25.23;;
5678;SDS011;2862;52.560;13.566;2023-10-19T20:34:12;63.40;;;25.93;;
5678;SDS011;2862;52.560;13.566;2023-10-19T20:44:15;62.87;;;28.30;;
5678;SDS011;2862;52.560;13.566;2023-10-19T20:54:19;67.53;;;29.03;;
5678;SDS011;2862;52.560;13.566;2023-10-19T21:04:23;60.93;;;27.67;;
5678;SDS011;2862;52.560;13.566;2023-10-19T21:14:28;63.10;;;27.20;;
5678;SDS011;2862;52.560;13.566;2023-10-19T21:24:31;63.87;;;29.73;;
5678;SDS011;2862;52.560;13.566;2023-10-19T21:34:35;65.97;;;29.13;;
5678;SDS011;2862;52.560;13.566;2023-10-19T21:44:39;67.47;;;29.67;;
5678;SDS011;2862;52.560;13.566;2023-10-19T21:54:44;66.70;;;30.23;;
5678;SDS011;2862;52.560;13.566;2023-10-19T22:04:47;65.90;;;27.53;;
5678;SDS011;2862;52.560;13.566;2023-10-19T22:14:51;70.30;;;28.23;;
5678;SDS011;2862;52.560;13.566;2023-10-19T22:24:54;61.70;;;27.80;;
5678;SDS011;2862;52.560;13.566;2023-10-19T22:35:00;66.47;;;29.67;;
5678;SDS011;2862;52.560;13.566;2023-10-19T22:45:03;64.20;;;28.40;;
5678;SDS011;2862;52.560;13.566;2023-10-19T22:55:09;57.07;;;26.80;;
5678;SDS011;2862;52.560;13.566;2023-10-19T23:05:14;49.90;;;23.70;;
5678;SDS011;2862;52.560;13.566;2023-10-19T23:15:20;50.77;;;21.90;;
5678;SDS011;2862;52.560;13.566;2023-10-19T23:25:32;51.50;;;24.37;;
5678;SDS011;2862;52.560;13.566;2023-10-19T23:35:39;46.80;;;20.50;;
5678;SDS011;2862;52.560;13.566;2023-10-19T23:45:42;47.60;;;20.83;;
5678;SDS011;2862;52.560;13.566;2023-10-19T23:55:46;43.17;;;19.87;;
